Time;durP1;ratioP1;P1;durP2;ratioP2;P2;SDS_P1;SDS_P2;PMS_P1;PMS_P2;Temp;Humidity;BMP_temperature;BMP_pressure;BME280_temperature;BME280_humidity;BME280_pressure;Samples;Min_cycle;Max_cycle;Signal;HPM_P1;HPM_P2
2021/07/14 00:00:22;;;;;;;1.05;0.98;;;27.10;82.60;;;;;;5071665;28;20044;-83
2021/07/14 00:02:49;;;;;;;1.08;1.02;;;27.10;81.70;;;;;;5072082;28;20043;-85
2021/07/14 00:05:18;;;;;;;6.32;1.77;;;26.70;82.00;;;;;;5071685;28;20034;-85
2021/07/14 00:07:45;;;;;;;0.52;0.52;;;26.40;83.80;;;;;;5053472;28;20531;-85
2021/07/14 00:10:17;;;;;;;0.93;0.93;;;26.80;84.40;;;;;;5072327;28;20028;-85
2021/07/14 00:12:58;;;;;;;1.35;1.25;;;27.00;84.40;;;;;;5053251;28;20412;-82
2021/07/14 00:23:13;;;;;;;0.70;0.70;;;27.20;84.70;;;;;;5051198;28;20063;-85
2021/07/14 00:25:39;;;;;;;1.15;1.00;;;27.30;84.90;;;;;;5052048;28;20036;-77
2021/07/14 00:28:05;;;;;;;0.60;0.60;;;27.20;84.20;;;;;;5052203;28;20037;-86
2021/07/14 00:30:34;;;;;;;1.42;1.27;;;27.20;83.50;;;;;;5052568;28;20029;-80
2021/07/14 00:33:00;;;;;;;0.68;0.68;;;26.60;84.10;;;;;;5052194;28;20029;-84
2021/07/14 00:35:26;;;;;;;2.63;2.38;;;26.60;84.90;;;;;;5052253;28;20040;-84
2021/07/14 00:37:52;;;;;;;1.30;1.20;;;26.80;85.50;;;;;;5033481;28;20120;-85
2021/07/14 00:40:17;;;;;;;3.03;2.35;;;27.00;85.10;;;;;;5033818;28;20033;-85
2021/07/14 00:42:45;;;;;;;1.33;1.20;;;27.00;85.10;;;;;;5050986;28;20034;-83
2021/07/14 00:45:12;;;;;;;1.45;1.35;;;27.10;84.80;;;;;;5051264;28;20108;-81
2021/07/14 00:47:43;;;;;;;1.25;1.00;;;27.10;85.50;;;;;;5051381;28;20064;-87
2021/07/14 00:50:09;;;;;;;1.02;0.93;;;26.90;85.20;;;;;;5051405;28;20036;-82
2021/07/14 00:52:36;;;;;;;0.60;0.60;;;26.90;86.20;;;;;;5033328;28;20041;-85
2021/07/14 00:55:03;;;;;;;1.33;1.20;;;26.80;85.80;;;;;;5051546;28;20029;-86
2021/07/14 00:57:30;;;;;;;3.80;2.17;;;26.80;85.50;;;;;;5051633;28;20041;-86
2021/07/14 00:59:55;;;;;;;1.25;1.15;;;26.80;86.60;;;;;;5051499;28;20025;-85
2021/07/14 01:02:22;;;;;;;0.55;0.55;;;26.80;87.00;;;;;;5051058;28;20036;-88
2021/07/14 01:05:14;;;;;;;3.00;1.17;;;26.90;87.60;;;;;;5032904;28;20075;-83
2021/07/14 01:08:14;;;;;;;1.48;1.38;;;26.80;88.00;;;;;;5012936;28;20174;-85
2021/07/14 01:10:56;;;;;;;1.25;1.13;;;26.70;87.40;;;;;;5032277;28;20476;-87
2021/07/14 01:13:35;;;;;;;0.60;0.60;;;26.80;86.90;;;;;;5031468;28;20112;-87
2021/07/14 01:16:13;;;;;;;2.50;1.15;;;26.80;86.40;;;;;;5031488;28;20549;-87
2021/07/14 01:19:08;;;;;;;1.55;1.20;;;26.70;86.50;;;;;;5031019;28;20034;-87
2021/07/14 01:21:39;;;;;;;1.27;1.13;;;26.70;87.50;;;;;;5031278;28;20381;-86
2021/07/14 01:24:40;;;;;;;0.70;0.70;;;26.60;87.00;;;;;;5030705;28;20033;-88
2021/07/14 01:27:13;;;;;;;1.63;1.13;;;26.60;86.60;;;;;;4982668;28;20401;-88
2021/07/14 01:29:48;;;;;;;0.90;0.90;;;26.70;85.70;;;;;;5034746;28;20038;-83
2021/07/14 01:32:16;;;;;;;1.40;1.30;;;26.70;85.20;;;;;;5034946;28;20033;-85
2021/07/14 01:34:58;;;;;;;1.05;0.95;;;26.70;85.70;;;;;;5034652;28;20060;-82
2021/07/14 01:37:26;;;;;;;0.68;0.68;;;26.60;86.40;;;;;;5034953;28;20493;-87
2021/07/14 01:39:56;;;;;;;0.93;0.80;;;26.60;87.20;;;;;;5034833;28;20112;-87
2021/07/14 01:42:25;;;;;;;3.95;3.03;;;26.60;87.70;;;;;;5034640;28;20029;-88
2021/07/14 01:44:56;;;;;;;1.42;1.33;;;26.40;87.60;;;;;;5034125;28;20033;-82
2021/07/14 01:47:23;;;;;;;1.23;1.13;;;25.50;89.50;;;;;;5016856;28;20136;-87
2021/07/14 01:49:51;;;;;;;3.97;2.38;;;25.10;90.70;;;;;;5033972;28;20415;-86
2021/07/14 01:52:19;;;;;;;6.22;2.97;;;25.30;90.90;;;;;;5016501;28;20041;-85
2021/07/14 01:54:49;;;;;;;1.33;1.23;;;25.80;90.90;;;;;;5034032;28;20037;-87
2021/07/14 01:57:16;;;;;;;1.35;1.10;;;26.00;90.60;;;;;;5033942;28;20049;-88
2021/07/14 01:59:44;;;;;;;2.33;1.42;;;26.10;90.20;;;;;;5034118;28;20048;-87
2021/07/14 02:02:12;;;;;;;0.93;0.93;;;26.10;90.50;;;;;;5034451;28;20030;-88
2021/07/14 02:04:41;;;;;;;1.35;1.25;;;26.10;90.20;;;;;;5033421;28;20030;-88
2021/07/14 02:07:13;;;;;;;0.60;0.60;;;26.20;90.40;;;;;;5034125;28;20060;-89
2021/07/14 02:09:41;;;;;;;1.58;1.40;;;26.20;90.50;;;;;;5033947;28;20030;-89
2021/07/14 02:12:14;;;;;;;1.15;1.08;;;26.20;90.50;;;;;;5034427;28;20029;-85
2021/07/14 02:14:55;;;;;;;1.65;1.55;;;26.20;90.90;;;;;;5033728;28;20026;-87
2021/07/14 02:17:25;;;;;;;1.00;0.90;;;26.20;90.90;;;;;;5034237;28;20067;-86
2021/07/14 02:20:19;;;;;;;1.17;1.07;;;26.20;90.80;;;;;;5033617;28;20370;-87
2021/07/14 02:22:47;;;;;;;2.35;2.15;;;26.10;91.00;;;;;;5002978;28;20041;-85
2021/07/14 02:25:13;;;;;;;1.05;0.95;;;26.00;91.20;;;;;;5033314;28;20083;-89
2021/07/14 02:27:39;;;;;;;0.93;0.93;;;26.10;91.40;;;;;;5033770;28;20033;-82
2021/07/14 02:30:21;;;;;;;1.70;1.60;;;26.00;91.20;;;;;;5033675;28;20033;-85
2021/07/14 02:32:53;;;;;;;0.73;0.73;;;25.90;91.50;;;;;;5033495;28;20034;-85
2021/07/14 02:35:20;;;;;;;3.42;1.63;;;26.00;91.30;;;;;;5015577;28;20437;-85
2021/07/14 02:37:51;;;;;;;1.40;1.30;;;26.10;91.00;;;;;;5033473;28;20052;-82
2021/07/14 02:40:25;;;;;;;1.00;0.98;;;26.00;91.00;;;;;;5033289;28;20392;-83
2021/07/14 02:42:54;;;;;;;2.30;2.05;;;25.80;91.00;;;;;;5033154;28;20116;-80
2021/07/14 02:45:21;;;;;;;1.10;0.90;;;25.90;90.90;;;;;;5033488;28;20079;-88
2021/07/14 02:47:48;;;;;;;1.38;1.27;;;25.80;91.10;;;;;;5033344;28;20048;-85
2021/07/14 02:50:20;;;;;;;1.13;1.02;;;25.90;91.30;;;;;;5033416;28;20034;-83
2021/07/14 02:52:49;;;;;;;1.50;1.40;;;25.80;91.10;;;;;;5033554;28;20289;-83
2021/07/14 02:55:19;;;;;;;0.80;0.80;;;25.70;90.90;;;;;;5033551;28;20034;-87
2021/07/14 02:57:49;;;;;;;0.57;0.57;;;25.70;91.10;;;;;;5033272;28;20041;-86
2021/07/14 03:00:16;;;;;;;0.93;0.93;;;25.20;91.00;;;;;;5032984;28;20033;-85
2021/07/14 03:02:42;;;;;;;4.40;1.60;;;24.90;91.80;;;;;;5014615;28;20029;-84
2021/07/14 03:05:09;;;;;;;1.05;1.00;;;25.00;92.10;;;;;;5032662;28;20041;-89
2021/07/14 03:07:36;;;;;;;0.70;0.70;;;25.20;92.10;;;;;;5033644;28;20117;-86
2021/07/14 03:10:04;;;;;;;0.90;0.90;;;25.20;91.70;;;;;;5033213;28;20381;-84
2021/07/14 03:12:31;;;;;;;2.80;2.03;;;25.20;91.60;;;;;;5056820;28;20119;-90
2021/07/14 03:15:01;;;;;;;3.05;2.50;;;25.30;91.50;;;;;;5072795;28;20481;-87
2021/07/14 03:17:30;;;;;;;0.93;0.90;;;25.40;91.60;;;;;;5072921;28;20032;-89
2021/07/14 03:19:58;;;;;;;0.70;0.70;;;25.50;91.40;;;;;;5072353;28;20108;-84
2021/07/14 03:22:24;;;;;;;0.90;0.90;;;25.60;91.60;;;;;;5072983;28;20301;-87
2021/07/14 03:24:51;;;;;;;0.70;0.70;;;25.60;92.20;;;;;;5072122;28;20064;-86
2021/07/14 03:27:18;;;;;;;1.40;1.23;;;25.80;92.30;;;;;;5054631;28;20045;-90
2021/07/14 03:29:46;;;;;;;1.90;1.73;;;25.60;92.10;;;;;;5072062;28;20507;-89
2021/07/14 03:32:12;;;;;;;3.83;2.08;;;25.50;92.30;;;;;;5072866;28;20429;-91
2021/07/14 03:34:37;;;;;;;1.00;1.00;;;25.40;92.50;;;;;;5072912;28;20547;-89
2021/07/14 03:37:07;;;;;;;2.83;2.25;;;25.40;92.90;;;;;;5073273;28;20522;-90
2021/07/14 03:39:36;;;;;;;0.70;0.70;;;25.30;92.80;;;;;;5072214;28;20036;-84
2021/07/14 03:42:04;;;;;;;1.17;1.13;;;25.30;93.20;;;;;;5072521;28;20041;-87
2021/07/14 03:44:31;;;;;;;1.30;1.20;;;25.30;93.00;;;;;;5071935;28;20032;-88
2021/07/14 03:46:58;;;;;;;1.05;0.95;;;25.40;93.30;;;;;;5072244;28;20040;-85
2021/07/14 03:49:25;;;;;;;2.20;1.75;;;25.30;93.50;;;;;;5072096;28;20052;-87
2021/07/14 03:51:52;;;;;;;0.60;0.60;;;25.20;93.60;;;;;;5072260;28;20028;-88
2021/07/14 03:54:19;;;;;;;1.40;1.30;;;25.20;93.70;;;;;;5072112;28;20041;-88
2021/07/14 03:56:45;;;;;;;0.90;0.85;;;25.30;93.70;;;;;;5072461;28;20049;-90
2021/07/14 03:59:12;;;;;;;1.17;1.08;;;25.40;93.50;;;;;;5071739;28;20036;-88
2021/07/14 04:01:39;;;;;;;1.10;1.00;;;25.50;93.60;;;;;;5054165;28;20086;-87
2021/07/14 04:04:07;;;;;;;1.83;1.67;;;25.50;94.40;;;;;;5072159;28;20385;-81
2021/07/14 04:06:34;;;;;;;1.48;1.38;;;25.60;94.00;;;;;;5072634;28;20435;-88
2021/07/14 04:09:19;;;;;;;1.35;1.20;;;25.60;93.90;;;;;;5054170;28;20028;-83
2021/07/14 04:11:48;;;;;;;0.80;0.80;;;25.60;94.20;;;;;;5053611;28;20056;-85
2021/07/14 04:14:14;;;;;;;1.75;1.33;;;25.80;93.80;;;;;;5071586;28;20035;-88
2021/07/14 04:16:40;;;;;;;1.25;1.15;;;25.90;94.00;;;;;;5072211;28;20028;-88
2021/07/14 04:19:06;;;;;;;1.38;1.27;;;25.90;93.80;;;;;;5071473;28;20029;-85
2021/07/14 04:21:31;;;;;;;2.97;1.52;;;25.70;94.50;;;;;;5053666;28;20032;-88
2021/07/14 04:23:57;;;;;;;1.65;1.55;;;25.70;94.30;;;;;;5071984;28;20051;-87
2021/07/14 04:26:24;;;;;;;0.90;0.90;;;25.70;94.10;;;;;;5071760;28;20349;-84
2021/07/14 04:28:50;;;;;;;0.73;0.73;;;25.70;93.80;;;;;;5071660;28;20036;-88
2021/07/14 04:31:16;;;;;;;0.73;0.73;;;25.70;93.80;;;;;;5053394;28;20036;-86
2021/07/14 04:33:43;;;;;;;1.17;1.00;;;25.70;94.10;;;;;;5070957;28;20090;-88
2021/07/14 04:36:10;;;;;;;0.82;0.82;;;25.60;94.30;;;;;;5053506;28;20078;-86
2021/07/14 04:38:36;;;;;;;0.90;0.90;;;25.60;94.30;;;;;;5071908;28;20039;-88
2021/07/14 04:41:03;;;;;;;0.77;0.77;;;25.60;93.90;;;;;;5053502;28;20032;-83
2021/07/14 04:43:29;;;;;;;1.00;0.90;;;25.60;93.70;;;;;;5071214;28;20078;-88
2021/07/14 04:45:55;;;;;;;2.78;2.28;;;25.60;93.70;;;;;;5071182;28;20033;-86
2021/07/14 04:48:22;;;;;;;1.48;1.38;;;25.60;93.70;;;;;;5053038;28;20120;-85
2021/07/14 04:50:48;;;;;;;9.18;2.85;;;25.60;93.60;;;;;;5071188;28;20100;-84
2021/07/14 04:53:14;;;;;;;9.48;6.20;;;25.60;93.60;;;;;;5070979;28;20067;-85
2021/07/14 04:55:40;;;;;;;16.55;6.38;;;25.70;93.90;;;;;;5063960;28;20045;-84
2021/07/14 04:58:06;;;;;;;15.98;4.18;;;25.70;94.00;;;;;;5023187;28;20112;-84
2021/07/14 05:00:32;;;;;;;3.15;1.90;;;25.70;93.90;;;;;;5040957;28;20428;-88
2021/07/14 05:02:57;;;;;;;3.83;1.52;;;25.80;94.50;;;;;;5044854;28;20037;-88
2021/07/14 05:05:23;;;;;;;2.85;1.70;;;25.80;94.10;;;;;;5024848;28;20036;-89
2021/07/14 05:07:50;;;;;;;1.33;1.23;;;25.80;94.00;;;;;;5034943;28;20037;-87
2021/07/14 05:10:20;;;;;;;1.05;0.95;;;25.80;94.10;;;;;;5017211;28;20041;-83
2021/07/14 05:12:46;;;;;;;0.88;0.88;;;25.80;94.00;;;;;;5055534;28;20040;-80
2021/07/14 05:15:12;;;;;;;4.90;2.42;;;25.80;94.10;;;;;;5074803;28;20116;-80
2021/07/14 05:17:38;;;;;;;1.90;1.50;;;25.70;94.70;;;;;;5074231;28;20100;-81
2021/07/14 05:20:06;;;;;;;2.95;2.28;;;25.70;94.80;;;;;;5074474;28;20068;-82
2021/07/14 05:22:31;;;;;;;0.82;0.82;;;25.90;94.70;;;;;;5073793;28;20040;-79
2021/07/14 05:24:57;;;;;;;1.52;1.35;;;26.00;95.10;;;;;;5074254;28;20040;-81
2021/07/14 05:27:23;;;;;;;0.65;0.65;;;26.10;95.30;;;;;;5074114;28;20068;-81
2021/07/14 05:29:48;;;;;;;1.25;1.15;;;26.20;95.20;;;;;;5074263;28;20484;-80
2021/07/14 05:32:14;;;;;;;7.00;6.30;;;26.40;94.40;;;;;;5073795;28;20028;-79
2021/07/14 05:34:40;;;;;;;12.45;8.25;;;26.50;95.00;;;;;;5039612;28;20062;-81
2021/07/14 05:37:06;;;;;;;7.88;4.20;;;26.50;94.60;;;;;;5074249;28;20032;-81
2021/07/14 05:39:31;;;;;;;1.23;1.15;;;26.40;94.40;;;;;;5073831;28;20036;-80
2021/07/14 05:41:57;;;;;;;1.13;0.90;;;26.50;94.40;;;;;;5055826;28;20043;-82
2021/07/14 05:44:23;;;;;;;3.22;3.00;;;26.60;94.60;;;;;;5073721;28;20071;-81
2021/07/14 05:46:50;;;;;;;0.73;0.73;;;26.60;94.90;;;;;;5073956;28;20063;-82
2021/07/14 05:49:16;;;;;;;0.90;0.88;;;26.70;94.60;;;;;;5063127;28;20407;-81
2021/07/14 05:51:43;;;;;;;0.95;0.90;;;26.60;94.00;;;;;;5044239;28;20040;-82
2021/07/14 05:54:08;;;;;;;2.58;1.38;;;26.70;94.60;;;;;;5053877;28;20075;-82
2021/07/14 05:56:34;;;;;;;0.70;0.68;;;26.70;94.30;;;;;;5053691;28;20048;-82
2021/07/14 05:59:00;;;;;;;1.92;1.58;;;26.80;94.30;;;;;;5053663;28;20068;-82
2021/07/14 06:01:25;;;;;;;1.30;1.20;;;26.90;93.80;;;;;;5052905;28;20127;-78
2021/07/14 06:03:51;;;;;;;13.32;5.95;;;27.10;94.50;;;;;;5025845;28;20038;-80
2021/07/14 06:06:17;;;;;;;5.20;4.38;;;27.10;93.40;;;;;;5033895;28;20072;-77
2021/07/14 06:08:43;;;;;;;3.20;2.60;;;27.20;93.70;;;;;;5033259;28;20034;-77
2021/07/14 06:11:09;;;;;;;4.85;3.45;;;27.40;93.90;;;;;;5033198;28;20037;-79
2021/07/14 06:13:35;;;;;;;1.73;1.60;;;27.40;93.30;;;;;;5064692;28;20029;-81
2021/07/14 06:16:01;;;;;;;2.05;1.38;;;27.40;92.70;;;;;;5055307;28;20058;-81
2021/07/14 06:18:27;;;;;;;0.88;0.88;;;27.30;92.50;;;;;;5073118;28;20472;-80
2021/07/14 06:20:52;;;;;;;2.17;1.38;;;27.40;92.70;;;;;;5073457;28;20331;-78
2021/07/14 06:23:18;;;;;;;1.42;1.33;;;27.40;93.10;;;;;;5072824;28;20040;-80
2021/07/14 06:25:44;;;;;;;0.75;0.75;;;27.40;92.80;;;;;;5073367;28;20035;-81
2021/07/14 06:28:13;;;;;;;0.80;0.80;;;27.40;93.40;;;;;;5072810;28;20037;-84
2021/07/14 06:30:48;;;;;;;1.58;1.38;;;27.30;93.70;;;;;;5072808;28;20078;-84
2021/07/14 06:33:14;;;;;;;0.85;0.85;;;27.40;93.90;;;;;;5072820;28;20106;-81
2021/07/14 06:35:41;;;;;;;0.77;0.77;;;27.40;92.90;;;;;;5073212;28;20044;-81
2021/07/14 06:38:07;;;;;;;1.00;0.95;;;27.50;93.80;;;;;;5072008;28;20569;-82
2021/07/14 06:40:37;;;;;;;1.25;1.15;;;27.70;93.80;;;;;;5072866;28;20037;-84
2021/07/14 06:43:08;;;;;;;0.98;0.82;;;27.80;93.10;;;;;;5072729;28;20064;-86
2021/07/14 06:45:34;;;;;;;1.58;1.48;;;27.60;92.50;;;;;;5072723;28;20105;-82
2021/07/14 06:48:00;;;;;;;0.80;0.80;;;27.60;92.50;;;;;;5072311;28;20400;-83
2021/07/14 06:50:26;;;;;;;0.60;0.60;;;27.70;92.60;;;;;;5072934;28;20535;-81
2021/07/14 06:52:52;;;;;;;0.50;0.50;;;27.70;93.00;;;;;;5072283;28;20040;-82
2021/07/14 06:55:17;;;;;;;0.70;0.70;;;27.80;93.00;;;;;;5055002;28;20400;-85
2021/07/14 06:57:45;;;;;;;0.60;0.60;;;28.00;92.80;;;;;;5071847;28;20377;-81
2021/07/14 07:00:13;;;;;;;0.50;0.50;;;28.10;93.00;;;;;;5054696;28;20055;-80
2021/07/14 07:02:39;;;;;;;0.43;0.43;;;28.10;92.50;;;;;;5072209;28;20154;-81
2021/07/14 07:05:06;;;;;;;1.85;1.38;;;28.20;92.40;;;;;;5072689;28;20028;-81
2021/07/14 07:07:32;;;;;;;0.77;0.77;;;28.30;92.40;;;;;;5053722;28;20123;-81
2021/07/14 07:09:57;;;;;;;7.93;1.40;;;28.50;92.20;;;;;;5072479;28;20033;-86
2021/07/14 07:12:23;;;;;;;1.20;1.10;;;28.40;91.80;;;;;;5067325;28;20492;-82
2021/07/14 07:14:49;;;;;;;1.40;1.27;;;28.20;91.80;;;;;;5052004;28;20083;-83
2021/07/14 07:17:15;;;;;;;2.80;2.50;;;28.20;91.80;;;;;;5052509;28;20037;-84
2021/07/14 07:19:40;;;;;;;1.15;1.05;;;28.10;92.10;;;;;;5052002;28;20489;-82
2021/07/14 07:22:06;;;;;;;0.68;0.68;;;28.10;92.20;;;;;;5052461;28;20118;-80
2021/07/14 07:24:33;;;;;;;0.60;0.60;;;28.30;91.80;;;;;;5051420;28;20323;-87
2021/07/14 07:26:59;;;;;;;0.60;0.60;;;28.50;91.40;;;;;;5052146;28;20127;-81
2021/07/14 07:29:25;;;;;;;0.85;0.85;;;28.50;91.80;;;;;;5051691;28;20025;-83
2021/07/14 07:31:52;;;;;;;0.90;0.90;;;28.50;91.70;;;;;;5034028;28;20576;-82
2021/07/14 07:34:19;;;;;;;1.27;1.10;;;28.50;91.80;;;;;;5051749;28;20033;-82
2021/07/14 07:36:45;;;;;;;0.68;0.68;;;28.80;91.20;;;;;;5052570;28;20036;-83
2021/07/14 07:39:14;;;;;;;1.95;1.80;;;28.70;91.50;;;;;;5051302;28;20045;-82
2021/07/14 07:41:39;;;;;;;1.25;1.05;;;28.80;91.60;;;;;;5052427;28;20114;-83
2021/07/14 07:44:06;;;;;;;1.00;0.90;;;28.90;91.80;;;;;;5033345;28;20082;-84
2021/07/14 07:46:33;;;;;;;0.50;0.50;;;29.00;91.40;;;;;;5051115;28;20099;-82
2021/07/14 07:48:59;;;;;;;2.35;1.42;;;29.10;91.20;;;;;;5033482;28;20029;-83
2021/07/14 07:51:25;;;;;;;0.30;0.30;;;29.10;91.00;;;;;;5051735;28;20033;-82
2021/07/14 07:53:53;;;;;;;1.23;1.08;;;28.90;90.60;;;;;;5051528;28;20033;-80
2021/07/14 07:56:19;;;;;;;2.15;1.13;;;28.80;90.50;;;;;;5051659;28;20105;-80
2021/07/14 07:58:45;;;;;;;1.45;1.17;;;28.90;90.70;;;;;;5051203;28;20036;-80
2021/07/14 08:01:11;;;;;;;1.30;1.08;;;29.00;90.60;;;;;;5051129;28;20041;-85
2021/07/14 08:03:37;;;;;;;0.50;0.50;;;29.20;90.60;;;;;;5051420;28;20029;-83
2021/07/14 08:06:03;;;;;;;1.00;0.93;;;29.20;90.50;;;;;;5033331;28;20040;-81
2021/07/14 08:08:28;;;;;;;0.50;0.50;;;29.20;90.40;;;;;;5051138;28;20171;-81
2021/07/14 08:10:56;;;;;;;0.70;0.70;;;29.20;91.00;;;;;;5051326;28;20021;-83
2021/07/14 08:13:23;;;;;;;0.60;0.60;;;29.40;90.30;;;;;;5062758;28;20032;-81
2021/07/14 08:15:49;;;;;;;0.70;0.70;;;29.40;90.20;;;;;;5071364;28;20099;-81
2021/07/14 08:18:15;;;;;;;0.65;0.65;;;29.50;90.10;;;;;;5070858;28;20043;-83
2021/07/14 08:20:41;;;;;;;0.60;0.60;;;29.50;90.20;;;;;;5071201;28;20047;-81
2021/07/14 08:23:08;;;;;;;2.47;2.28;;;29.60;90.40;;;;;;5053015;28;20377;-86
2021/07/14 08:25:34;;;;;;;1.05;0.93;;;29.60;90.50;;;;;;5070841;28;20546;-84
2021/07/14 08:27:59;;;;;;;1.30;1.20;;;29.70;89.90;;;;;;5071449;28;20036;-83
2021/07/14 08:30:25;;;;;;;2.40;1.48;;;29.70;89.10;;;;;;5070904;28;20384;-82
2021/07/14 08:32:51;;;;;;;1.40;1.25;;;29.60;89.00;;;;;;5071186;28;20124;-80
2021/07/14 08:35:17;;;;;;;0.70;0.70;;;29.80;89.20;;;;;;5071272;28;20346;-82
2021/07/14 08:37:43;;;;;;;0.60;0.60;;;29.70;88.20;;;;;;5072869;28;20510;-80
2021/07/14 08:40:10;;;;;;;1.25;0.98;;;29.80;88.60;;;;;;5074836;28;20037;-83
2021/07/14 08:42:38;;;;;;;1.52;0.93;;;29.90;88.20;;;;;;5075149;28;20040;-80
2021/07/14 08:45:06;;;;;;;0.70;0.70;;;29.90;87.30;;;;;;5074858;28;20037;-81
2021/07/14 08:47:32;;;;;;;3.40;2.00;;;29.90;87.20;;;;;;5074894;28;20134;-82
2021/07/14 08:49:59;;;;;;;1.08;0.95;;;30.10;87.40;;;;;;5074821;28;20129;-81
2021/07/14 08:52:24;;;;;;;1.27;0.98;;;30.00;86.70;;;;;;5075342;28;20032;-81
2021/07/14 08:54:51;;;;;;;1.27;1.02;;;30.00;86.90;;;;;;5074757;28;20036;-81
2021/07/14 08:57:18;;;;;;;1.42;1.05;;;29.90;86.80;;;;;;5057284;28;20542;-81
2021/07/14 08:59:45;;;;;;;0.50;0.50;;;30.00;87.90;;;;;;5074491;28;20040;-82
2021/07/14 09:02:13;;;;;;;1.70;1.20;;;30.10;86.50;;;;;;5074964;28;20060;-85
2021/07/14 09:04:39;;;;;;;1.05;1.05;;;30.20;86.80;;;;;;5074828;28;20404;-81
2021/07/14 09:07:06;;;;;;;1.08;0.98;;;30.40;86.40;;;;;;5075638;28;20473;-81
2021/07/14 09:09:34;;;;;;;0.45;0.45;;;30.40;85.80;;;;;;5075057;28;20056;-82
2021/07/14 09:12:01;;;;;;;1.02;0.93;;;30.40;85.70;;;;;;5074771;28;20028;-82
2021/07/14 09:14:32;;;;;;;1.63;1.27;;;30.40;85.90;;;;;;5055619;28;20025;-83
2021/07/14 09:17:24;;;;;;;1.42;1.00;;;30.50;85.20;;;;;;5054662;28;20036;-82
2021/07/14 09:20:00;;;;;;;2.83;1.13;;;30.80;85.20;;;;;;5053021;28;20120;-83
2021/07/14 09:22:31;;;;;;;0.38;0.38;;;31.00;83.80;;;;;;5048633;28;20079;-82
2021/07/14 09:24:58;;;;;;;1.65;1.55;;;31.20;83.70;;;;;;5054344;28;20404;-85
2021/07/14 09:27:31;;;;;;;1.85;1.10;;;31.30;82.50;;;;;;5054483;28;20037;-83
2021/07/14 09:30:15;;;;;;;0.60;0.60;;;31.30;82.20;;;;;;5054195;28;20509;-81
2021/07/14 09:32:53;;;;;;;1.13;1.02;;;31.50;81.80;;;;;;5054056;28;20126;-81
2021/07/14 09:35:24;;;;;;;0.65;0.60;;;31.50;81.50;;;;;;5054243;28;20025;-81
2021/07/14 09:37:50;;;;;;;0.70;0.70;;;31.60;81.30;;;;;;5054064;28;20043;-81
2021/07/14 09:40:17;;;;;;;1.40;1.05;;;31.80;81.10;;;;;;5054205;28;20200;-82
2021/07/14 09:42:56;;;;;;;4.22;3.13;;;31.80;79.90;;;;;;5054200;28;20040;-80
2021/07/14 09:45:42;;;;;;;0.70;0.70;;;32.00;80.10;;;;;;5053928;28;20033;-82
2021/07/14 09:48:10;;;;;;;5.30;1.73;;;32.10;79.00;;;;;;5035675;28;20037;-82
2021/07/14 09:50:41;;;;;;;1.52;1.38;;;32.30;78.50;;;;;;5054128;28;20048;-82
2021/07/14 09:53:12;;;;;;;1.65;0.93;;;32.30;79.40;;;;;;5053803;28;20103;-83
2021/07/14 09:55:39;;;;;;;1.08;0.63;;;32.60;77.60;;;;;;5053848;28;20473;-80
2021/07/14 09:58:13;;;;;;;1.08;0.95;;;32.70;76.80;;;;;;5053776;28;20166;-79
2021/07/14 10:01:03;;;;;;;1.67;1.42;;;32.70;77.00;;;;;;5035749;28;20033;-80
2021/07/14 10:03:37;;;;;;;2.28;1.55;;;32.90;77.10;;;;;;5053459;28;20538;-82
2021/07/14 10:06:08;;;;;;;2.05;1.10;;;32.90;75.90;;;;;;5049007;28;20080;-81
2021/07/14 10:08:36;;;;;;;1.02;0.93;;;33.00;75.00;;;;;;5053399;28;20041;-84
2021/07/14 10:11:25;;;;;;;2.85;1.13;;;33.00;75.00;;;;;;5035303;28;20120;-83
2021/07/14 10:13:51;;;;;;;0.95;0.82;;;33.20;75.60;;;;;;5065437;28;20028;-82
2021/07/14 10:16:18;;;;;;;0.68;0.63;;;33.30;74.80;;;;;;5055366;28;20035;-84
2021/07/14 10:18:57;;;;;;;1.75;0.93;;;33.30;74.60;;;;;;5072995;28;20065;-81
2021/07/14 10:21:23;;;;;;;1.38;0.63;;;33.30;73.10;;;;;;5073349;28;20117;-81
2021/07/14 10:23:49;;;;;;;2.00;1.27;;;33.40;73.30;;;;;;5055026;28;20123;-85
2021/07/14 10:26:16;;;;;;;1.35;0.75;;;33.50;73.10;;;;;;5072945;28;20041;-82
2021/07/14 10:28:44;;;;;;;1.50;1.00;;;33.60;73.20;;;;;;5054542;28;20369;-83
2021/07/14 10:31:11;;;;;;;0.47;0.47;;;33.80;72.40;;;;;;5054935;28;20032;-82
2021/07/14 10:33:38;;;;;;;1.20;1.10;;;33.70;71.20;;;;;;5073141;28;20435;-80
2021/07/14 10:36:07;;;;;;;4.65;2.03;;;33.80;71.00;;;;;;5054961;28;20063;-81
2021/07/14 10:38:33;;;;;;;0.68;0.57;;;33.90;71.00;;;;;;5054782;28;20037;-81
2021/07/14 10:40:59;;;;;;;1.55;1.20;;;34.00;71.20;;;;;;5073477;28;20032;-83
2021/07/14 10:43:27;;;;;;;2.80;1.17;;;34.20;68.80;;;;;;5072742;28;20033;-80
2021/07/14 10:45:53;;;;;;;0.82;0.73;;;34.00;67.30;;;;;;5072559;28;20043;-83
2021/07/14 10:48:24;;;;;;;5.57;2.30;;;34.00;66.60;;;;;;5072826;28;20146;-82
2021/07/14 10:50:52;;;;;;;3.70;1.38;;;34.00;66.70;;;;;;5073285;28;20028;-81
2021/07/14 10:53:18;;;;;;;1.33;1.02;;;34.00;66.90;;;;;;5073040;28;20401;-80
2021/07/14 10:55:46;;;;;;;1.25;0.85;;;34.20;67.10;;;;;;5072698;28;20025;-82
2021/07/14 10:58:19;;;;;;;3.67;1.30;;;34.10;66.00;;;;;;5072442;28;20044;-80
2021/07/14 11:00:46;;;;;;;1.80;1.42;;;34.10;66.30;;;;;;5071880;28;20029;-83
2021/07/14 11:03:31;;;;;;;2.10;1.10;;;34.10;66.00;;;;;;5054566;28;20045;-82
2021/07/14 11:05:57;;;;;;;0.90;0.63;;;34.20;66.50;;;;;;5072475;28;20032;-81
2021/07/14 11:08:48;;;;;;;0.68;0.68;;;34.50;66.10;;;;;;5072525;28;20388;-80
2021/07/14 11:11:19;;;;;;;0.63;0.60;;;34.60;66.40;;;;;;5072505;28;20488;-84
2021/07/14 11:14:02;;;;;;;1.00;0.68;;;34.60;66.70;;;;;;5061602;28;20033;-81
2021/07/14 11:16:33;;;;;;;0.60;0.50;;;34.80;67.00;;;;;;5052520;28;20036;-82
2021/07/14 11:19:11;;;;;;;0.80;0.77;;;34.90;67.10;;;;;;5052235;28;20027;-81
2021/07/14 11:21:56;;;;;;;0.40;0.40;;;35.20;67.90;;;;;;5052792;28;20041;-81
2021/07/14 11:24:45;;;;;;;1.60;1.20;;;34.90;67.70;;;;;;5052093;28;20034;-83
2021/07/14 11:27:26;;;;;;;0.68;0.57;;;35.00;67.40;;;;;;5052365;28;20148;-83
2021/07/14 11:30:03;;;;;;;1.27;1.10;;;34.80;66.60;;;;;;5051878;28;20036;-82
2021/07/14 11:32:35;;;;;;;2.45;1.13;;;34.60;66.50;;;;;;5052132;28;20029;-79
2021/07/14 11:35:03;;;;;;;0.75;0.70;;;34.90;66.70;;;;;;5051816;28;20657;-79
2021/07/14 11:37:37;;;;;;;1.38;1.00;;;35.20;66.00;;;;;;5051939;28;20029;-82
2021/07/14 11:40:18;;;;;;;0.82;0.60;;;35.50;65.80;;;;;;5051573;28;20064;-83
2021/07/14 11:42:47;;;;;;;1.00;0.63;;;35.60;65.00;;;;;;5051731;28;20040;-81
2021/07/14 11:45:13;;;;;;;1.87;0.63;;;35.60;65.60;;;;;;5034048;28;20032;-82
2021/07/14 11:47:39;;;;;;;1.98;1.05;;;35.80;64.60;;;;;;5051263;28;20049;-83
2021/07/14 11:50:06;;;;;;;0.55;0.55;;;35.70;64.90;;;;;;5034055;28;20037;-83
2021/07/14 11:52:46;;;;;;;0.70;0.70;;;35.80;64.50;;;;;;5051731;28;20126;-84
2021/07/14 11:55:24;;;;;;;1.38;0.82;;;35.50;64.90;;;;;;5051774;28;20059;-87
2021/07/14 11:57:51;;;;;;;1.70;1.27;;;35.60;65.30;;;;;;5051158;28;20057;-85
2021/07/14 12:00:17;;;;;;;0.90;0.80;;;35.80;64.40;;;;;;5051443;28;20029;-86
2021/07/14 12:02:59;;;;;;;2.03;1.52;;;35.90;64.40;;;;;;5051479;28;20049;-85
2021/07/14 12:05:36;;;;;;;0.40;0.40;;;36.10;64.30;;;;;;5051430;28;20064;-85
2021/07/14 12:08:13;;;;;;;2.05;1.45;;;36.40;63.50;;;;;;5051325;28;20045;-87
2021/07/14 12:10:40;;;;;;;0.88;0.60;;;36.50;62.90;;;;;;5050999;28;20037;-85
2021/07/14 12:13:06;;;;;;;1.17;0.50;;;36.50;62.20;;;;;;5054067;28;20036;-87
2021/07/14 12:15:45;;;;;;;0.73;0.60;;;36.30;62.40;;;;;;5071665;28;20425;-87
2021/07/14 12:18:12;;;;;;;0.77;0.57;;;36.30;62.80;;;;;;5053021;28;20382;-82
2021/07/14 12:20:47;;;;;;;1.55;1.10;;;36.50;62.90;;;;;;5071444;28;20028;-82
2021/07/14 12:23:14;;;;;;;1.80;0.98;;;36.50;62.50;;;;;;5053239;28;20418;-81
2021/07/14 12:25:40;;;;;;;1.25;0.85;;;36.30;62.70;;;;;;5071497;28;20029;-82
2021/07/14 12:28:10;;;;;;;17.02;0.98;;;36.40;62.50;;;;;;5071053;28;20048;-83
2021/07/14 12:30:40;;;;;;;2.13;1.27;;;36.50;62.10;;;;;;5071242;28;20036;-83
2021/07/14 12:33:07;;;;;;;;;;;36.50;61.30;;;;;;5053673;28;20032;-82
2021/07/14 12:35:36;;;;;;;1.30;0.95;;;36.30;60.80;;;;;;5071600;28;19916;-80
2021/07/14 12:38:07;;;;;;;7.75;1.42;;;36.20;61.00;;;;;;5071034;28;20044;-81
2021/07/14 12:40:46;;;;;;;2.13;0.80;;;36.20;60.20;;;;;;5071146;28;20037;-83
2021/07/14 12:43:17;;;;;;;2.35;1.27;;;36.40;58.90;;;;;;5071098;28;20366;-81
2021/07/14 12:45:45;;;;;;;1.05;0.65;;;36.60;60.10;;;;;;5071124;28;20036;-81
2021/07/14 12:48:28;;;;;;;0.82;0.65;;;36.70;59.40;;;;;;5071044;28;20507;-82
2021/07/14 12:50:54;;;;;;;0.90;0.88;;;36.60;58.30;;;;;;5071062;28;20028;-81
2021/07/14 12:53:20;;;;;;;4.18;1.45;;;36.40;58.80;;;;;;5052990;28;20514;-83
2021/07/14 12:55:47;;;;;;;1.45;1.02;;;36.30;58.60;;;;;;5071151;28;20364;-81
2021/07/14 12:58:20;;;;;;;0.75;0.47;;;36.30;58.40;;;;;;5070720;28;20036;-82
2021/07/14 13:00:47;;;;;;;0.65;0.50;;;36.40;58.40;;;;;;5070958;28;20021;-82
2021/07/14 13:03:22;;;;;;;0.40;0.40;;;36.40;57.90;;;;;;5070589;28;20054;-80
2021/07/14 13:05:49;;;;;;;0.68;0.68;;;36.50;57.60;;;;;;5070993;28;20380;-82